createdAt,value
2019-03-13T00:00:48.731Z,3.37
2019-03-13T00:03:19.386Z,2.93
2019-03-13T00:05:49.646Z,2.90
2019-03-13T00:08:19.914Z,2.53
2019-03-13T00:10:50.038Z,2.60
2019-03-13T00:13:20.307Z,2.50
2019-03-13T00:15:50.538Z,3.07
2019-03-13T00:18:20.769Z,2.93
2019-03-13T00:20:51.740Z,3.17
2019-03-13T00:23:21.923Z,2.30
2019-03-13T00:25:52.043Z,2.73
2019-03-13T00:28:22.282Z,2.97
2019-03-13T00:30:52.910Z,2.43
2019-03-13T00:33:23.954Z,2.53
2019-03-13T00:35:54.355Z,2.90
2019-03-13T00:38:24.927Z,2.97
2019-03-13T00:40:55.152Z,3.10
2019-03-13T00:43:25.355Z,2.83
2019-03-13T00:45:55.995Z,3.00
2019-03-13T00:48:26.221Z,2.73
2019-03-13T00:50:56.828Z,2.57
2019-03-13T00:53:27.595Z,2.80
2019-03-13T00:55:58.098Z,3.10
2019-03-13T00:58:28.282Z,3.07
2019-03-13T01:01:17.422Z,3.40
2019-03-13T01:03:55.418Z,2.67
2019-03-13T01:06:28.803Z,3.23
2019-03-13T01:08:59.373Z,2.90
2019-03-13T01:11:29.584Z,3.40
2019-03-13T01:13:59.837Z,2.90
2019-03-13T01:16:30.143Z,3.23
2019-03-13T01:19:00.452Z,3.03
2019-03-13T01:21:30.831Z,3.37
2019-03-13T01:24:01.481Z,3.00
2019-03-13T01:26:32.025Z,3.07
2019-03-13T01:29:02.203Z,3.63
2019-03-13T01:31:54.241Z,3.20
2019-03-13T01:34:37.176Z,3.67
2019-03-13T01:37:07.744Z,4.03
2019-03-13T01:39:37.992Z,3.43
2019-03-13T01:42:08.336Z,3.53
2019-03-13T01:44:40.733Z,4.13
2019-03-13T01:57:58.576Z,3.90
2019-03-13T02:00:28.907Z,3.70
2019-03-13T02:02:59.119Z,3.47
2019-03-13T02:05:29.725Z,3.90
2019-03-13T02:08:00.004Z,3.30
2019-03-13T02:10:30.497Z,3.53
2019-03-13T02:13:00.757Z,3.87
2019-03-13T02:15:30.988Z,3.70
2019-03-13T02:18:01.178Z,3.80
2019-03-13T02:20:32.293Z,3.50
2019-03-13T02:23:02.522Z,3.57
2019-03-13T02:25:33.200Z,3.90
2019-03-13T02:28:04.416Z,3.67
2019-03-13T02:30:34.575Z,3.83
2019-03-13T02:33:04.787Z,3.90
2019-03-13T02:35:35.056Z,4.37
2019-03-13T02:38:05.261Z,3.60
2019-03-13T02:40:35.507Z,3.60
2019-03-13T02:43:05.734Z,3.70
2019-03-13T02:45:35.963Z,3.77
2019-03-13T02:48:06.245Z,3.53
2019-03-13T02:50:36.449Z,4.20
2019-03-13T02:53:07.109Z,3.73
2019-03-13T02:55:37.353Z,3.60
2019-03-13T02:58:07.585Z,4.30
2019-03-13T03:00:50.521Z,3.63
2019-03-13T03:03:30.701Z,3.87
2019-03-13T03:06:01.579Z,4.00
2019-03-13T03:08:31.811Z,4.47
2019-03-13T03:11:02.038Z,4.03
2019-03-13T03:13:32.323Z,4.13
2019-03-13T03:16:02.516Z,4.07
2019-03-13T03:18:32.744Z,4.13
2019-03-13T03:21:02.973Z,4.00
2019-03-13T03:23:33.216Z,4.10
2019-03-13T03:26:03.473Z,4.03
2019-03-13T03:28:33.722Z,4.70
2019-03-13T03:31:03.995Z,4.73
2019-03-13T03:33:34.182Z,3.93
2019-03-13T03:36:04.421Z,4.43
2019-03-13T03:38:35.111Z,4.40
2019-03-13T03:41:05.798Z,4.20
2019-03-13T03:43:40.526Z,4.40
2019-03-13T03:46:08.280Z,3.83
2019-03-13T03:48:38.605Z,4.00
2019-03-13T03:51:09.163Z,5.33
2019-03-13T03:53:39.385Z,4.70
2019-03-13T03:56:09.603Z,4.47
2019-03-13T03:58:39.881Z,4.20
2019-03-13T04:01:10.079Z,4.57
2019-03-13T04:03:40.329Z,3.87
2019-03-13T04:06:10.853Z,4.37
2019-03-13T04:08:41.241Z,3.97
2019-03-13T04:11:11.495Z,4.00
2019-03-13T04:13:44.904Z,4.13
2019-03-13T04:16:14.262Z,4.20
2019-03-13T04:18:44.466Z,3.90
2019-03-13T04:21:14.699Z,4.40
2019-03-13T04:23:44.909Z,3.60
2019-03-13T04:26:15.415Z,4.07
2019-03-13T04:28:45.625Z,4.37
2019-03-13T04:31:15.917Z,4.30
2019-03-13T04:33:46.400Z,4.23
2019-03-13T04:36:16.643Z,4.87
2019-03-13T04:38:47.177Z,3.63
2019-03-13T04:41:17.455Z,4.10
2019-03-13T04:43:47.596Z,3.97
2019-03-13T04:46:17.815Z,3.60
2019-03-13T04:48:48.062Z,3.83
2019-03-13T04:51:18.231Z,3.47
2019-03-13T04:53:48.482Z,4.10
2019-03-13T04:56:19.248Z,4.13
2019-03-13T04:58:49.468Z,3.97
2019-03-13T05:01:19.702Z,3.60
2019-03-13T05:03:50.725Z,3.53
2019-03-13T05:06:24.257Z,3.87
2019-03-13T05:09:04.514Z,3.80
2019-03-13T05:11:34.720Z,3.60
2019-03-13T05:14:05.294Z,3.57
2019-03-13T05:16:35.516Z,3.20
2019-03-13T05:19:06.154Z,3.60
2019-03-13T05:21:36.421Z,3.40
2019-03-13T05:24:06.676Z,2.90
2019-03-13T05:26:36.906Z,2.83
2019-03-13T05:29:07.057Z,3.33
2019-03-13T05:31:37.318Z,4.23
2019-03-13T05:34:08.234Z,3.90
2019-03-13T05:36:38.490Z,3.20
2019-03-13T05:39:08.890Z,3.03
2019-03-13T05:41:39.506Z,3.47
2019-03-13T05:44:09.675Z,3.30
2019-03-13T05:46:39.937Z,3.00
2019-03-13T05:49:10.209Z,3.50
2019-03-13T05:51:40.712Z,3.30
2019-03-13T05:54:11.792Z,3.53
2019-03-13T05:56:42.049Z,4.27
2019-03-13T05:59:12.414Z,3.53
2019-03-13T06:01:42.867Z,4.03
2019-03-13T06:04:14.664Z,3.93
2019-03-13T06:06:45.073Z,4.43
2019-03-13T06:09:15.600Z,3.93
2019-03-13T06:11:46.348Z,3.70
2019-03-13T06:14:16.785Z,3.90
2019-03-13T06:16:47.182Z,4.10
2019-03-13T06:19:18.098Z,4.07
2019-03-13T06:21:51.709Z,4.53
2019-03-13T06:24:22.659Z,4.20
2019-03-13T06:26:53.969Z,4.60
2019-03-13T06:29:25.252Z,4.30
2019-03-13T06:31:55.879Z,3.60
2019-03-13T06:34:26.307Z,3.63
2019-03-13T06:36:56.807Z,4.33
2019-03-13T06:39:27.433Z,4.00
2019-03-13T06:41:57.996Z,3.80
2019-03-13T06:44:28.321Z,3.80
2019-03-13T06:46:58.675Z,3.97
2019-03-13T06:49:29.505Z,4.50
2019-03-13T06:52:02.881Z,3.53
2019-03-13T06:54:33.335Z,4.13
2019-03-13T06:57:03.927Z,3.67
2019-03-13T07:00:02.253Z,3.87
2019-03-13T07:02:40.233Z,3.97
2019-03-13T07:05:35.193Z,3.60
2019-03-13T07:08:36.737Z,4.27
2019-03-13T07:11:25.070Z,4.13
2019-03-13T07:14:29.588Z,3.67
2019-03-13T07:17:21.815Z,3.30
2019-03-13T07:20:14.193Z,3.17
2019-03-13T07:23:06.523Z,3.93
2019-03-13T07:25:43.135Z,3.80
2019-03-13T07:28:33.102Z,3.20
2019-03-13T07:31:31.776Z,3.67
2019-03-13T07:34:21.979Z,4.53
2019-03-13T07:37:09.908Z,3.27
2019-03-13T07:39:56.006Z,4.27
2019-03-13T07:42:32.741Z,3.70
2019-03-13T07:45:25.026Z,3.50
2019-03-13T07:48:04.366Z,3.80
2019-03-13T07:50:51.593Z,3.80
2019-03-13T07:53:59.207Z,4.00
2019-03-13T07:56:46.992Z,3.20
2019-03-13T07:59:42.458Z,3.87
2019-03-13T08:02:30.646Z,3.40
2019-03-13T08:05:18.728Z,3.70
2019-03-13T08:08:11.243Z,3.50
2019-03-13T08:10:59.546Z,3.57
2019-03-13T08:13:47.696Z,3.67
2019-03-13T08:16:43.061Z,3.80
2019-03-13T08:19:47.511Z,3.67
2019-03-13T08:22:41.130Z,4.20
2019-03-13T08:25:36.476Z,3.37
2019-03-13T08:28:31.815Z,3.30
2019-03-13T08:31:21.099Z,3.60
2019-03-13T08:34:13.173Z,3.53
2019-03-13T08:37:01.796Z,3.30
2019-03-13T08:39:47.772Z,3.30
2019-03-13T08:42:30.767Z,3.63
2019-03-13T08:45:26.159Z,3.50
2019-03-13T08:48:04.686Z,3.70
2019-03-13T08:51:12.559Z,3.13
2019-03-13T08:53:56.191Z,3.30
2019-03-13T08:56:33.640Z,3.40
2019-03-13T08:59:09.808Z,2.63
2019-03-13T09:01:54.453Z,2.87
2019-03-13T09:04:37.042Z,3.20
2019-03-13T09:07:35.740Z,3.60
2019-03-13T09:10:30.185Z,3.50
2019-03-13T09:13:28.603Z,2.70
2019-03-13T09:16:24.283Z,3.10
2019-03-13T09:19:20.181Z,3.60
2019-03-13T09:22:00.075Z,3.50
2019-03-13T09:24:39.841Z,3.50
2019-03-13T09:27:37.528Z,3.30
2019-03-13T09:30:33.583Z,3.43
2019-03-13T09:33:19.658Z,3.47
2019-03-13T09:36:07.665Z,3.30
2019-03-13T09:39:05.901Z,3.63
2019-03-13T09:41:55.248Z,2.97
2019-03-13T09:44:44.860Z,3.77
2019-03-13T09:47:35.273Z,3.70
2019-03-13T09:50:16.541Z,3.63
2019-03-13T09:53:12.088Z,3.83
2019-03-13T09:56:05.458Z,3.37
2019-03-13T09:58:42.136Z,3.33
2019-03-13T10:01:24.380Z,3.60
2019-03-13T10:04:00.551Z,3.43
2019-03-13T10:06:46.802Z,3.47
2019-03-13T10:09:45.146Z,3.13
2019-03-13T10:12:35.909Z,3.10
2019-03-13T10:15:12.942Z,3.87
2019-03-13T10:18:02.274Z,3.20
2019-03-13T10:20:40.898Z,3.77
2019-03-13T10:23:48.576Z,3.80
2019-03-13T10:26:35.649Z,3.53
2019-03-13T10:29:28.377Z,3.80
2019-03-13T10:32:05.118Z,3.73
2019-03-13T10:35:06.770Z,4.20
2019-03-13T10:37:55.064Z,4.17
2019-03-13T10:40:47.427Z,4.20
2019-03-13T10:43:46.274Z,4.17
2019-03-13T10:46:26.888Z,3.87
2019-03-13T10:49:14.252Z,3.67
2019-03-13T10:52:00.803Z,3.77
2019-03-13T10:54:50.116Z,3.70
2019-03-13T10:57:39.562Z,4.43
2019-03-13T11:00:39.698Z,3.90
2019-03-13T11:03:23.337Z,4.57
2019-03-13T11:06:13.194Z,3.87
2019-03-13T11:09:06.705Z,4.07
2019-03-13T11:11:54.581Z,3.67
2019-03-13T11:14:42.571Z,3.27
2019-03-13T11:17:31.932Z,3.30
2019-03-13T11:20:18.829Z,3.60
2019-03-13T11:23:05.063Z,2.93
2019-03-13T11:25:57.407Z,3.50
2019-03-13T11:28:49.240Z,2.93
2019-03-13T11:31:40.468Z,3.20
2019-03-13T11:34:41.694Z,3.43
2019-03-13T11:37:28.508Z,3.60
2019-03-13T11:40:16.926Z,3.63
2019-03-13T11:42:55.427Z,3.53
2019-03-13T11:45:35.412Z,3.43
2019-03-13T11:48:20.432Z,3.57
2019-03-13T11:51:15.758Z,3.30
2019-03-13T11:54:10.924Z,3.53
2019-03-13T11:57:00.950Z,3.07
2019-03-13T12:00:10.954Z,3.37
2019-03-13T12:03:02.410Z,3.50
2019-03-13T12:05:50.534Z,3.30
2019-03-13T12:08:48.973Z,3.00
2019-03-13T12:11:50.479Z,2.90
2019-03-13T12:14:55.015Z,2.90
2019-03-13T12:17:53.058Z,2.20
2019-03-13T12:20:32.670Z,2.60
2019-03-13T12:23:29.603Z,2.40
2019-03-13T12:26:27.670Z,3.10
2019-03-13T12:29:35.583Z,2.47
2019-03-13T12:32:16.673Z,3.00
2019-03-13T12:35:21.181Z,2.97
2019-03-13T12:38:06.307Z,2.87
2019-03-13T12:41:01.581Z,3.00
2019-03-13T12:43:46.629Z,2.77
2019-03-13T12:46:56.369Z,2.70
2019-03-13T12:49:42.578Z,2.60
2019-03-13T12:52:31.140Z,3.10
2019-03-13T12:55:39.269Z,2.90
2019-03-13T12:58:28.568Z,2.77
2019-03-13T13:01:16.182Z,2.93
2019-03-13T13:04:00.570Z,2.87
2019-03-13T13:06:40.670Z,3.30
2019-03-13T13:09:40.842Z,3.00
2019-03-13T13:12:36.771Z,2.87
2019-03-13T13:15:23.465Z,2.80
2019-03-13T13:18:19.588Z,2.60
2019-03-13T13:20:49.991Z,3.07
2019-03-13T13:23:20.891Z,2.70
2019-03-13T13:25:51.539Z,2.50
2019-03-13T13:28:22.097Z,2.20
2019-03-13T13:30:52.993Z,2.27
2019-03-13T13:33:26.198Z,2.60
2019-03-13T13:35:56.812Z,2.40
2019-03-13T13:38:27.701Z,2.40
2019-03-13T13:40:58.604Z,2.40
2019-03-13T13:43:28.981Z,2.33
2019-03-13T13:46:28.630Z,2.60
2019-03-13T13:48:59.889Z,2.40
2019-03-13T13:51:32.708Z,2.73
2019-03-13T13:54:03.229Z,2.80
2019-03-13T13:56:33.757Z,2.60
2019-03-13T13:59:04.236Z,2.80
2019-03-13T14:01:34.969Z,2.60
2019-03-13T14:04:06.765Z,2.40
2019-03-13T14:06:37.481Z,2.50
2019-03-13T14:09:09.283Z,2.87
2019-03-13T14:11:39.640Z,2.97
2019-03-13T14:14:10.110Z,2.80
2019-03-13T14:16:40.454Z,2.87
2019-03-13T14:19:10.838Z,2.63
2019-03-13T14:21:41.607Z,2.50
2019-03-13T14:24:12.193Z,2.93
2019-03-13T14:26:42.934Z,2.50
2019-03-13T14:29:13.641Z,3.17
2019-03-13T14:31:46.702Z,3.30
2019-03-13T14:34:17.360Z,2.70
2019-03-13T14:36:48.174Z,2.50
2019-03-13T14:39:18.562Z,3.10
2019-03-13T14:41:51.988Z,2.80
2019-03-13T14:44:22.585Z,2.70
2019-03-13T14:46:53.038Z,3.13
2019-03-13T14:49:25.590Z,2.87
2019-03-13T14:51:56.690Z,2.83
2019-03-13T14:54:27.319Z,2.83
2019-03-13T14:56:57.818Z,3.20
2019-03-13T14:59:28.193Z,2.70
2019-03-13T15:01:58.711Z,3.07
2019-03-13T15:04:29.003Z,2.77
2019-03-13T15:06:59.458Z,2.90
2019-03-13T15:09:30.214Z,2.73
2019-03-13T15:12:00.635Z,2.50
2019-03-13T15:14:31.413Z,2.93
2019-03-13T15:17:01.943Z,2.70
2019-03-13T15:19:32.243Z,3.20
2019-03-13T15:22:02.931Z,2.80
2019-03-13T15:24:35.196Z,3.20
2019-03-13T15:27:06.212Z,3.37
2019-03-13T15:29:39.091Z,2.90
2019-03-13T15:32:09.935Z,2.97
2019-03-13T15:34:41.624Z,3.37
2019-03-13T15:37:13.285Z,3.20
2019-03-13T15:39:43.611Z,3.30
2019-03-13T15:42:14.326Z,3.40
2019-03-13T15:44:44.772Z,3.80
2019-03-13T15:47:16.601Z,3.37
2019-03-13T15:49:47.185Z,3.57
2019-03-13T15:52:17.767Z,4.00
2019-03-13T15:54:48.317Z,3.13
2019-03-13T15:57:22.737Z,3.63
2019-03-13T15:59:53.504Z,3.50
2019-03-13T16:02:24.532Z,3.37
2019-03-13T16:04:58.218Z,3.13
2019-03-13T16:07:28.575Z,2.90
2019-03-13T16:10:03.133Z,3.03
2019-03-13T16:12:33.255Z,3.03
2019-03-13T16:15:04.208Z,3.03
2019-03-13T16:17:34.762Z,2.83
2019-03-13T16:20:06.698Z,3.50
2019-03-13T16:22:37.242Z,3.13
2019-03-13T16:25:07.988Z,3.47
2019-03-13T16:27:39.142Z,3.30
2019-03-13T16:30:13.110Z,3.27
2019-03-13T16:32:44.393Z,2.97
2019-03-13T16:35:14.977Z,3.40
2019-03-13T16:37:45.373Z,3.10
2019-03-13T16:40:16.449Z,3.00
2019-03-13T16:42:47.829Z,3.50
2019-03-13T16:45:19.235Z,3.23
2019-03-13T16:47:49.886Z,3.57
2019-03-13T16:50:21.258Z,3.23
2019-03-13T16:52:51.715Z,2.80
2019-03-13T16:55:22.215Z,3.60
2019-03-13T16:57:52.732Z,3.33
2019-03-13T17:00:24.374Z,2.93
2019-03-13T17:02:55.643Z,3.77
2019-03-13T17:05:26.807Z,3.80
2019-03-13T17:07:59.587Z,3.40
2019-03-13T17:10:30.368Z,3.80
2019-03-13T17:13:05.302Z,3.63
2019-03-13T17:15:35.313Z,3.30
2019-03-13T17:18:08.838Z,3.23
2019-03-13T17:20:39.661Z,3.50
2019-03-13T17:23:10.037Z,3.60
2019-03-13T17:25:40.590Z,3.27
2019-03-13T17:28:11.304Z,3.50
2019-03-13T17:30:41.743Z,3.27
2019-03-13T17:33:12.104Z,3.40
2019-03-13T17:35:42.965Z,3.40
2019-03-13T17:38:14.246Z,2.93
2019-03-13T17:40:44.617Z,2.87
2019-03-13T17:43:15.101Z,3.23
2019-03-13T17:45:45.879Z,3.97
2019-03-13T17:48:16.276Z,3.20
2019-03-13T17:50:46.571Z,3.30
2019-03-13T17:53:17.228Z,3.73
2019-03-13T17:55:47.609Z,3.63
2019-03-13T17:58:18.283Z,3.87
2019-03-13T18:00:52.501Z,3.60
2019-03-13T18:03:23.663Z,2.90
2019-03-13T18:05:53.995Z,3.00
2019-03-13T18:08:24.250Z,3.67
2019-03-13T18:10:54.884Z,3.40
2019-03-13T18:13:25.507Z,3.33
2019-03-13T18:15:55.728Z,4.00
2019-03-13T18:18:26.452Z,3.97
2019-03-13T18:20:56.729Z,3.37
2019-03-13T18:23:26.970Z,3.70
2019-03-13T18:25:57.194Z,3.23
2019-03-13T18:28:27.406Z,3.07
2019-03-13T18:31:01.671Z,3.53
2019-03-13T18:33:31.085Z,3.17
2019-03-13T18:36:01.690Z,3.97
2019-03-13T18:38:32.094Z,2.90
2019-03-13T18:41:03.237Z,3.00
2019-03-13T18:43:33.779Z,3.47
2019-03-13T18:46:03.984Z,3.37
2019-03-13T18:48:34.514Z,3.40
2019-03-13T18:51:04.780Z,3.03
2019-03-13T18:53:34.970Z,3.70
2019-03-13T18:56:05.191Z,3.30
2019-03-13T18:58:35.697Z,3.40
2019-03-13T19:01:06.477Z,3.87
2019-03-13T19:03:36.711Z,3.03
2019-03-13T19:06:06.919Z,3.60
2019-03-13T19:08:37.160Z,4.00
2019-03-13T19:11:07.685Z,3.50
2019-03-13T19:13:37.886Z,3.20
2019-03-13T19:16:08.081Z,4.10
2019-03-13T19:18:38.298Z,3.60
2019-03-13T19:21:08.571Z,3.60
2019-03-13T19:23:39.056Z,3.57
2019-03-13T19:26:09.584Z,3.60
2019-03-13T19:28:39.870Z,3.40
2019-03-13T19:31:10.083Z,3.40
2019-03-13T19:33:40.511Z,2.73
2019-03-13T19:36:10.823Z,3.07
2019-03-13T19:38:41.323Z,3.00
2019-03-13T19:41:11.610Z,3.10
2019-03-13T19:43:41.896Z,3.33
2019-03-13T19:46:12.167Z,2.80
2019-03-13T19:48:43.597Z,2.97
2019-03-13T19:51:13.887Z,2.80
2019-03-13T19:53:44.539Z,2.73
2019-03-13T19:56:14.823Z,2.87
2019-03-13T19:58:45.032Z,2.93
2019-03-13T20:01:15.274Z,2.50
2019-03-13T20:03:55.004Z,2.90
2019-03-13T20:06:18.404Z,2.70
2019-03-13T20:08:48.959Z,2.77
2019-03-13T20:11:19.304Z,3.60
2019-03-13T20:13:49.477Z,3.10
2019-03-13T20:16:19.745Z,3.53
2019-03-13T20:18:50.003Z,3.90
2019-03-13T20:21:20.178Z,2.77
2019-03-13T20:23:50.664Z,3.20
2019-03-13T20:26:21.292Z,2.87
2019-03-13T20:28:52.428Z,3.30
2019-03-13T20:31:22.724Z,2.73
2019-03-13T20:33:52.941Z,2.63
2019-03-13T20:36:23.512Z,2.57
2019-03-13T20:38:54.708Z,3.30
2019-03-13T20:41:24.902Z,2.93
2019-03-13T20:43:55.156Z,2.90
2019-03-13T20:46:25.700Z,2.60
2019-03-13T20:48:55.984Z,2.97
2019-03-13T20:51:26.183Z,3.10
2019-03-13T20:53:56.465Z,2.73
2019-03-13T20:56:26.666Z,2.57
2019-03-13T20:58:57.248Z,2.53
2019-03-13T21:01:28.247Z,2.37
2019-03-13T21:03:58.804Z,2.80
2019-03-13T21:06:29.383Z,3.30
2019-03-13T21:08:59.653Z,2.87
2019-03-13T21:11:29.885Z,3.20
2019-03-13T21:14:00.123Z,3.17
2019-03-13T21:16:30.599Z,3.00
2019-03-13T21:19:00.928Z,3.13
2019-03-13T21:21:31.567Z,3.50
2019-03-13T21:24:02.034Z,2.93
2019-03-13T21:26:32.587Z,3.87
2019-03-13T21:29:03.080Z,3.50
2019-03-13T21:31:33.554Z,3.60
2019-03-13T21:34:03.814Z,3.53
2019-03-13T21:36:34.101Z,3.37
2019-03-13T21:39:06.485Z,3.00
2019-03-13T21:41:36.737Z,3.20
2019-03-13T21:44:06.972Z,2.83
2019-03-13T21:46:37.947Z,2.93
2019-03-13T21:49:08.745Z,3.67
2019-03-13T21:51:38.963Z,3.73
2019-03-13T21:54:09.607Z,3.47
2019-03-13T21:56:39.910Z,3.20
2019-03-13T21:59:10.363Z,2.90
2019-03-13T22:01:40.635Z,3.10
2019-03-13T22:04:23.279Z,3.53
2019-03-13T22:06:43.046Z,3.63
2019-03-13T22:09:13.196Z,3.73
2019-03-13T22:11:43.779Z,3.00
2019-03-13T22:14:14.220Z,3.63
2019-03-13T22:16:44.724Z,3.33
2019-03-13T22:19:14.959Z,3.37
2019-03-13T22:21:45.299Z,3.43
2019-03-13T22:24:15.510Z,3.43
2019-03-13T22:26:46.066Z,3.17
2019-03-13T22:29:16.294Z,3.13
2019-03-13T22:31:46.530Z,3.43
2019-03-13T22:34:17.118Z,3.23
2019-03-13T22:36:47.784Z,3.67
2019-03-13T22:39:18.038Z,3.33
2019-03-13T22:41:48.317Z,3.50
2019-03-13T22:44:18.943Z,3.60
2019-03-13T22:46:50.483Z,3.33
2019-03-13T22:49:20.832Z,3.50
2019-03-13T22:51:51.034Z,3.73
2019-03-13T22:54:21.176Z,3.37
2019-03-13T22:56:51.708Z,4.27
2019-03-13T22:59:21.990Z,3.50
2019-03-13T23:01:52.194Z,3.60
2019-03-13T23:04:22.772Z,3.07
2019-03-13T23:06:52.987Z,3.57
2019-03-13T23:09:23.540Z,3.23
2019-03-13T23:11:53.849Z,3.13
2019-03-13T23:14:24.079Z,3.47
2019-03-13T23:16:54.290Z,3.40
2019-03-13T23:19:24.491Z,4.00
2019-03-13T23:21:55.040Z,3.60
2019-03-13T23:24:25.245Z,3.67
2019-03-13T23:26:55.547Z,3.13
2019-03-13T23:29:25.769Z,3.30
2019-03-13T23:31:56.336Z,3.40
2019-03-13T23:34:26.643Z,3.27
2019-03-13T23:36:56.837Z,3.17
2019-03-13T23:39:27.094Z,3.40
2019-03-13T23:41:57.307Z,3.10
2019-03-13T23:44:27.828Z,3.17
2019-03-13T23:46:58.383Z,3.63
2019-03-13T23:49:28.601Z,3.33
2019-03-13T23:51:58.766Z,3.77
2019-03-13T23:54:28.989Z,3.27
2019-03-13T23:56:59.587Z,2.90
2019-03-13T23:59:30.171Z,3.10
